Погода Ноунана неделю

Банфора, Буркина-Фасо

25 февраля-02 марта
  • 25февраля
    Сегодня
    +20°
    +39°
    Небольшая облачность
    ВремяПогодаТемператураВлажностьДавлениеВетер, м/сВероятность осадков
    00:00Ясно и безоблачно+24°C17 %737 мм2.8 м/с1 %
    03:00Ясно и безоблачно+20°C18 %736 мм2.4 м/с1 %
    06:00Ясно и безоблачно+19°C18 %737 мм2.4 м/с1 %
    09:00Ясно и безоблачно+26°C11 %739 мм2.0 м/с1 %
    12:00Облачно с прояснениями+36°C7 %738 мм3.3 м/с1 %
    15:00Небольшая облачность+38°C11 %735 мм1.9 м/с1 %
    18:00Практически безоблачно+37°C16 %735 мм0.9 м/с1 %
    21:00Ясно и безоблачно+29°C20 %736 мм2.1 м/с1 %
  • 26февраля
    Понедельник
    +22°
    +39°
    Ясно и безоблачно
    ВремяПогодаТемператураВлажностьДавлениеВетер, м/сВероятность осадков
    00:00Ясно и безоблачно+26°C19 %736 мм2.6 м/с1 %
    03:00Ясно и безоблачно+24°C21 %734 мм2.2 м/с1 %
    06:00Ясно и безоблачно+21°C26 %735 мм2.5 м/с1 %
    09:00Ясно и безоблачно+28°C17 %738 мм0.7 м/с1 %
    12:00Ясно и безоблачно+37°C12 %737 мм2.8 м/с1 %
    15:00Ясно и безоблачно+38°C12 %734 мм3.4 м/с1 %
    18:00Ясно и безоблачно+37°C22 %734 мм1.3 м/с1 %
    21:00Ясно и безоблачно+32°C19 %735 мм2.4 м/с1 %
  • 27февраля
    Вторник
    +25°
    +40°
    Практически безоблачно
    ВремяПогодаТемператураВлажностьДавлениеВетер, м/сВероятность осадков
    00:00Ясно и безоблачно+29°C33 %735 мм2.1 м/с1 %
    03:00Ясно и безоблачно+25°C38 %734 мм2.3 м/с1 %
    06:00Ясно и безоблачно+25°C34 %734 мм1.3 м/с1 %
    09:00Ясно и безоблачно+30°C25 %736 мм1.5 м/с1 %
    12:00Ясно и безоблачно+36°C18 %736 мм0.8 м/с1 %
    15:00Практически безоблачно+38°C14 %733 мм0.4 м/с1 %
    18:00Небольшая облачность+38°C18 %733 мм1.4 м/с1 %
    21:00Практически безоблачно+34°C21 %735 мм1.7 м/с1 %
  • 28февраля
    Среда
    +23°
    +39°
    Ясно и безоблачно
    ВремяПогодаТемператураВлажностьДавлениеВетер, м/сВероятность осадков
    00:00Ясно и безоблачно+29°C23 %735 мм2.6 м/с1 %
    03:00Практически безоблачно+26°C27 %734 мм2.3 м/с1 %
    06:00Облачно с прояснениями+26°C24 %735 мм1.6 м/с1 %
    09:00Ясно и безоблачно+31°C17 %737 мм2.9 м/с1 %
    12:00Ясно и безоблачно+37°C9 %735 мм3.9 м/с1 %
    15:00Ясно и безоблачно+39°C9 %733 мм3.0 м/с1 %
    18:00Ясно и безоблачно+38°C17 %733 мм2.1 м/с1 %
    21:00Ясно и безоблачно+32°C16 %734 мм2.5 м/с1 %
Мы используем cookies
Соглашаюсь